sensor_id;sensor_type;location;lat;lon;timestamp;P1;durP1;ratioP1;P2;durP2;ratioP2
35909;SDS011;22004;49.120;-0.200;2022-11-12T00:02:16;9.63;;;6.53;;
35909;SDS011;22004;49.120;-0.200;2022-11-12T00:04:41;9.88;;;6.30;;
35909;SDS011;22004;49.120;-0.200;2022-11-12T00:07:07;9.20;;;6.25;;
35909;SDS011;22004;49.120;-0.200;2022-11-12T00:09:32;9.00;;;6.40;;
35909;SDS011;22004;49.120;-0.200;2022-11-12T00:11:57;12.43;;;7.00;;
35909;SDS011;22004;49.120;-0.200;2022-11-12T00:14:23;9.35;;;6.57;;
35909;SDS011;22004;49.120;-0.200;2022-11-12T00:16:48;11.15;;;6.90;;
35909;SDS011;22004;49.120;-0.200;2022-11-12T00:19:13;11.18;;;7.07;;
35909;SDS011;22004;49.120;-0.200;2022-11-12T00:21:39;9.82;;;6.70;;
35909;SDS011;22004;49.120;-0.200;2022-11-12T00:24:04;10.75;;;6.13;;
35909;SDS011;22004;49.120;-0.200;2022-11-12T00:26:30;12.02;;;6.90;;
35909;SDS011;22004;49.120;-0.200;2022-11-12T00:28:55;10.50;;;6.85;;
35909;SDS011;22004;49.120;-0.200;2022-11-12T00:31:20;7.85;;;5.97;;
35909;SDS011;22004;49.120;-0.200;2022-11-12T00:33:45;12.50;;;7.80;;
35909;SDS011;22004;49.120;-0.200;2022-11-12T00:36:11;9.18;;;7.00;;
35909;SDS011;22004;49.120;-0.200;2022-11-12T00:38:36;13.63;;;7.40;;
35909;SDS011;22004;49.120;-0.200;2022-11-12T00:41:02;9.80;;;6.57;;
35909;SDS011;22004;49.120;-0.200;2022-11-12T00:43:28;11.25;;;7.43;;
35909;SDS011;22004;49.120;-0.200;2022-11-12T00:45:53;9.98;;;6.82;;
35909;SDS011;22004;49.120;-0.200;2022-11-12T00:48:18;10.75;;;6.88;;
35909;SDS011;22004;49.120;-0.200;2022-11-12T00:50:44;10.05;;;6.78;;
35909;SDS011;22004;49.120;-0.200;2022-11-12T00:53:09;8.90;;;6.28;;
35909;SDS011;22004;49.120;-0.200;2022-11-12T00:55:35;12.82;;;6.88;;
35909;SDS011;22004;49.120;-0.200;2022-11-12T00:58:00;10.73;;;6.63;;
35909;SDS011;22004;49.120;-0.200;2022-11-12T01:00:25;9.35;;;6.32;;
35909;SDS011;22004;49.120;-0.200;2022-11-12T01:02:51;8.65;;;6.45;;
35909;SDS011;22004;49.120;-0.200;2022-11-12T01:05:16;8.48;;;6.28;;
35909;SDS011;22004;49.120;-0.200;2022-11-12T01:07:42;9.93;;;7.03;;
35909;SDS011;22004;49.120;-0.200;2022-11-12T01:10:08;8.73;;;6.30;;
35909;SDS011;22004;49.120;-0.200;2022-11-12T01:12:35;10.75;;;6.45;;
35909;SDS011;22004;49.120;-0.200;2022-11-12T01:15:00;9.55;;;6.07;;
35909;SDS011;22004;49.120;-0.200;2022-11-12T01:17:26;10.15;;;6.78;;
35909;SDS011;22004;49.120;-0.200;2022-11-12T01:19:52;9.70;;;6.88;;
35909;SDS011;22004;49.120;-0.200;2022-11-12T01:22:17;10.52;;;6.88;;
35909;SDS011;22004;49.120;-0.200;2022-11-12T01:24:43;11.85;;;7.32;;
35909;SDS011;22004;49.120;-0.200;2022-11-12T01:27:08;8.80;;;6.13;;
35909;SDS011;22004;49.120;-0.200;2022-11-12T01:29:34;11.25;;;6.63;;
35909;SDS011;22004;49.120;-0.200;2022-11-12T01:31:59;9.90;;;6.70;;
35909;SDS011;22004;49.120;-0.200;2022-11-12T01:34:24;9.63;;;6.50;;
35909;SDS011;22004;49.120;-0.200;2022-11-12T01:36:50;8.50;;;6.20;;
35909;SDS011;22004;49.120;-0.200;2022-11-12T01:39:16;9.45;;;6.30;;
35909;SDS011;22004;49.120;-0.200;2022-11-12T01:41:41;9.55;;;5.95;;
35909;SDS011;22004;49.120;-0.200;2022-11-12T01:44:11;9.30;;;5.57;;
35909;SDS011;22004;49.120;-0.200;2022-11-12T01:46:41;10.02;;;5.70;;
35909;SDS011;22004;49.120;-0.200;2022-11-12T01:52:16;8.50;;;5.07;;
35909;SDS011;22004;49.120;-0.200;2022-11-12T01:54:47;8.73;;;5.88;;
35909;SDS011;22004;49.120;-0.200;2022-11-12T01:57:16;8.43;;;5.35;;
35909;SDS011;22004;49.120;-0.200;2022-11-12T01:59:47;8.93;;;6.10;;
35909;SDS011;22004;49.120;-0.200;2022-11-12T02:02:16;9.38;;;6.03;;
35909;SDS011;22004;49.120;-0.200;2022-11-12T02:04:42;6.40;;;5.53;;
35909;SDS011;22004;49.120;-0.200;2022-11-12T02:07:08;7.90;;;5.45;;
35909;SDS011;22004;49.120;-0.200;2022-11-12T02:09:35;7.88;;;5.78;;
35909;SDS011;22004;49.120;-0.200;2022-11-12T02:12:00;8.32;;;6.28;;
35909;SDS011;22004;49.120;-0.200;2022-11-12T02:14:26;9.73;;;5.30;;
35909;SDS011;22004;49.120;-0.200;2022-11-12T02:16:52;8.48;;;5.63;;
35909;SDS011;22004;49.120;-0.200;2022-11-12T02:19:17;7.03;;;5.30;;
35909;SDS011;22004;49.120;-0.200;2022-11-12T02:21:43;8.57;;;5.63;;
35909;SDS011;22004;49.120;-0.200;2022-11-12T02:26:39;7.90;;;5.22;;
35909;SDS011;22004;49.120;-0.200;2022-11-12T02:29:08;9.50;;;6.18;;
35909;SDS011;22004;49.120;-0.200;2022-11-12T02:31:34;11.43;;;6.43;;
35909;SDS011;22004;49.120;-0.200;2022-11-12T02:33:59;7.57;;;5.63;;
35909;SDS011;22004;49.120;-0.200;2022-11-12T02:36:25;6.63;;;5.22;;
35909;SDS011;22004;49.120;-0.200;2022-11-12T02:38:51;8.65;;;5.85;;
35909;SDS011;22004;49.120;-0.200;2022-11-12T02:41:17;8.45;;;6.03;;
35909;SDS011;22004;49.120;-0.200;2022-11-12T02:43:42;6.68;;;5.45;;
35909;SDS011;22004;49.120;-0.200;2022-11-12T02:46:08;8.68;;;5.80;;
35909;SDS011;22004;49.120;-0.200;2022-11-12T02:48:33;7.30;;;5.75;;
35909;SDS011;22004;49.120;-0.200;2022-11-12T02:50:59;8.23;;;5.68;;
35909;SDS011;22004;49.120;-0.200;2022-11-12T02:53:24;9.55;;;5.90;;
35909;SDS011;22004;49.120;-0.200;2022-11-12T02:55:50;12.85;;;6.53;;
35909;SDS011;22004;49.120;-0.200;2022-11-12T02:58:15;9.32;;;6.20;;
35909;SDS011;22004;49.120;-0.200;2022-11-12T03:00:40;8.45;;;6.35;;
35909;SDS011;22004;49.120;-0.200;2022-11-12T03:03:06;10.27;;;6.72;;
35909;SDS011;22004;49.120;-0.200;2022-11-12T03:05:32;12.90;;;7.90;;
35909;SDS011;22004;49.120;-0.200;2022-11-12T03:07:59;9.93;;;6.63;;
35909;SDS011;22004;49.120;-0.200;2022-11-12T03:10:26;11.85;;;7.13;;
35909;SDS011;22004;49.120;-0.200;2022-11-12T03:12:53;11.98;;;7.10;;
35909;SDS011;22004;49.120;-0.200;2022-11-12T03:15:20;17.00;;;7.78;;
35909;SDS011;22004;49.120;-0.200;2022-11-12T03:17:46;12.07;;;7.65;;
35909;SDS011;22004;49.120;-0.200;2022-11-12T03:20:11;14.68;;;8.07;;
35909;SDS011;22004;49.120;-0.200;2022-11-12T03:22:37;11.00;;;6.90;;
35909;SDS011;22004;49.120;-0.200;2022-11-12T03:25:04;12.45;;;7.80;;
35909;SDS011;22004;49.120;-0.200;2022-11-12T03:27:30;12.63;;;7.63;;
35909;SDS011;22004;49.120;-0.200;2022-11-12T03:29:55;13.05;;;7.63;;
35909;SDS011;22004;49.120;-0.200;2022-11-12T03:32:21;12.80;;;7.70;;
35909;SDS011;22004;49.120;-0.200;2022-11-12T03:34:46;11.00;;;7.28;;
35909;SDS011;22004;49.120;-0.200;2022-11-12T03:37:12;11.55;;;6.97;;
35909;SDS011;22004;49.120;-0.200;2022-11-12T03:39:37;10.57;;;7.10;;
35909;SDS011;22004;49.120;-0.200;2022-11-12T03:42:03;9.43;;;7.00;;
35909;SDS011;22004;49.120;-0.200;2022-11-12T03:44:28;10.60;;;6.65;;
35909;SDS011;22004;49.120;-0.200;2022-11-12T03:46:54;13.02;;;7.10;;
35909;SDS011;22004;49.120;-0.200;2022-11-12T03:49:19;8.50;;;6.32;;
35909;SDS011;22004;49.120;-0.200;2022-11-12T03:51:44;13.27;;;6.55;;
35909;SDS011;22004;49.120;-0.200;2022-11-12T03:54:11;10.68;;;6.88;;
35909;SDS011;22004;49.120;-0.200;2022-11-12T03:56:36;11.10;;;6.65;;
35909;SDS011;22004;49.120;-0.200;2022-11-12T03:59:02;10.43;;;6.65;;
35909;SDS011;22004;49.120;-0.200;2022-11-12T04:01:27;8.60;;;6.18;;
35909;SDS011;22004;49.120;-0.200;2022-11-12T04:03:53;8.43;;;6.32;;
35909;SDS011;22004;49.120;-0.200;2022-11-12T04:06:18;8.57;;;5.97;;
35909;SDS011;22004;49.120;-0.200;2022-11-12T04:09:02;9.13;;;6.03;;
35909;SDS011;22004;49.120;-0.200;2022-11-12T04:11:27;9.23;;;6.07;;
35909;SDS011;22004;49.120;-0.200;2022-11-12T04:13:53;10.02;;;6.60;;
35909;SDS011;22004;49.120;-0.200;2022-11-12T04:16:19;10.88;;;6.45;;
35909;SDS011;22004;49.120;-0.200;2022-11-12T04:19:04;9.48;;;6.13;;
35909;SDS011;22004;49.120;-0.200;2022-11-12T04:21:52;11.80;;;6.38;;
35909;SDS011;22004;49.120;-0.200;2022-11-12T04:24:27;8.80;;;5.95;;
35909;SDS011;22004;49.120;-0.200;2022-11-12T04:27:22;9.10;;;5.85;;
35909;SDS011;22004;49.120;-0.200;2022-11-12T04:29:50;10.45;;;6.20;;
35909;SDS011;22004;49.120;-0.200;2022-11-12T04:32:35;7.93;;;6.03;;
35909;SDS011;22004;49.120;-0.200;2022-11-12T04:35:03;7.70;;;5.93;;
35909;SDS011;22004;49.120;-0.200;2022-11-12T04:37:29;8.90;;;6.07;;
35909;SDS011;22004;49.120;-0.200;2022-11-12T04:40:12;8.52;;;5.85;;
35909;SDS011;22004;49.120;-0.200;2022-11-12T04:42:57;8.23;;;5.38;;
35909;SDS011;22004;49.120;-0.200;2022-11-12T04:45:41;7.97;;;5.68;;
35909;SDS011;22004;49.120;-0.200;2022-11-12T04:48:09;8.50;;;5.57;;
35909;SDS011;22004;49.120;-0.200;2022-11-12T04:50:34;8.23;;;5.57;;
35909;SDS011;22004;49.120;-0.200;2022-11-12T04:53:00;9.32;;;5.47;;
35909;SDS011;22004;49.120;-0.200;2022-11-12T04:55:26;6.35;;;5.05;;
35909;SDS011;22004;49.120;-0.200;2022-11-12T04:57:51;8.90;;;5.38;;
35909;SDS011;22004;49.120;-0.200;2022-11-12T05:00:16;10.75;;;5.38;;
35909;SDS011;22004;49.120;-0.200;2022-11-12T05:02:42;7.22;;;5.20;;
35909;SDS011;22004;49.120;-0.200;2022-11-12T05:05:07;7.68;;;5.05;;
35909;SDS011;22004;49.120;-0.200;2022-11-12T05:07:33;7.95;;;5.63;;
35909;SDS011;22004;49.120;-0.200;2022-11-12T05:09:58;10.88;;;5.72;;
35909;SDS011;22004;49.120;-0.200;2022-11-12T05:12:24;7.30;;;5.07;;
35909;SDS011;22004;49.120;-0.200;2022-11-12T05:14:49;6.75;;;4.95;;
35909;SDS011;22004;49.120;-0.200;2022-11-12T05:17:14;7.50;;;5.32;;
35909;SDS011;22004;49.120;-0.200;2022-11-12T05:19:40;7.90;;;4.95;;
35909;SDS011;22004;49.120;-0.200;2022-11-12T05:22:05;7.25;;;5.07;;
35909;SDS011;22004;49.120;-0.200;2022-11-12T05:24:31;9.85;;;5.25;;
35909;SDS011;22004;49.120;-0.200;2022-11-12T05:26:58;6.93;;;4.97;;
35909;SDS011;22004;49.120;-0.200;2022-11-12T05:29:23;7.80;;;5.25;;
35909;SDS011;22004;49.120;-0.200;2022-11-12T05:31:49;8.35;;;5.50;;
35909;SDS011;22004;49.120;-0.200;2022-11-12T05:34:14;6.93;;;4.88;;
35909;SDS011;22004;49.120;-0.200;2022-11-12T05:36:39;7.50;;;4.90;;
35909;SDS011;22004;49.120;-0.200;2022-11-12T05:39:05;9.88;;;5.32;;
35909;SDS011;22004;49.120;-0.200;2022-11-12T05:41:30;7.50;;;5.88;;
35909;SDS011;22004;49.120;-0.200;2022-11-12T05:43:55;9.23;;;5.30;;
35909;SDS011;22004;49.120;-0.200;2022-11-12T05:46:21;8.25;;;4.95;;
35909;SDS011;22004;49.120;-0.200;2022-11-12T05:48:46;12.57;;;5.68;;
35909;SDS011;22004;49.120;-0.200;2022-11-12T05:51:12;7.20;;;5.07;;
35909;SDS011;22004;49.120;-0.200;2022-11-12T05:53:37;8.95;;;5.28;;
35909;SDS011;22004;49.120;-0.200;2022-11-12T05:56:04;8.40;;;5.60;;
35909;SDS011;22004;49.120;-0.200;2022-11-12T05:58:30;7.00;;;5.10;;
35909;SDS011;22004;49.120;-0.200;2022-11-12T06:00:56;5.70;;;4.65;;
35909;SDS011;22004;49.120;-0.200;2022-11-12T06:03:22;9.27;;;4.60;;
35909;SDS011;22004;49.120;-0.200;2022-11-12T06:05:48;8.20;;;5.38;;
35909;SDS011;22004;49.120;-0.200;2022-11-12T06:08:13;7.45;;;4.80;;
35909;SDS011;22004;49.120;-0.200;2022-11-12T06:10:39;7.68;;;5.13;;
35909;SDS011;22004;49.120;-0.200;2022-11-12T06:13:04;7.03;;;4.85;;
35909;SDS011;22004;49.120;-0.200;2022-11-12T06:15:30;6.05;;;5.10;;
35909;SDS011;22004;49.120;-0.200;2022-11-12T06:17:55;6.28;;;5.13;;
35909;SDS011;22004;49.120;-0.200;2022-11-12T06:20:21;7.05;;;4.88;;
35909;SDS011;22004;49.120;-0.200;2022-11-12T06:22:47;7.47;;;4.88;;
35909;SDS011;22004;49.120;-0.200;2022-11-12T06:25:13;6.50;;;4.90;;
35909;SDS011;22004;49.120;-0.200;2022-11-12T06:27:39;7.63;;;4.78;;
35909;SDS011;22004;49.120;-0.200;2022-11-12T06:30:04;7.43;;;5.30;;
35909;SDS011;22004;49.120;-0.200;2022-11-12T06:32:31;7.40;;;5.28;;
35909;SDS011;22004;49.120;-0.200;2022-11-12T06:34:57;7.28;;;5.30;;
35909;SDS011;22004;49.120;-0.200;2022-11-12T06:37:22;8.40;;;5.38;;
35909;SDS011;22004;49.120;-0.200;2022-11-12T06:39:47;6.75;;;5.13;;
35909;SDS011;22004;49.120;-0.200;2022-11-12T06:42:13;5.78;;;4.78;;
35909;SDS011;22004;49.120;-0.200;2022-11-12T06:44:38;7.43;;;5.25;;
35909;SDS011;22004;49.120;-0.200;2022-11-12T06:47:04;7.75;;;5.22;;
35909;SDS011;22004;49.120;-0.200;2022-11-12T06:49:30;6.40;;;5.28;;
35909;SDS011;22004;49.120;-0.200;2022-11-12T06:51:55;8.50;;;5.75;;
35909;SDS011;22004;49.120;-0.200;2022-11-12T06:54:21;11.52;;;6.07;;
35909;SDS011;22004;49.120;-0.200;2022-11-12T06:56:46;7.97;;;5.55;;
35909;SDS011;22004;49.120;-0.200;2022-11-12T06:59:11;7.72;;;5.68;;
35909;SDS011;22004;49.120;-0.200;2022-11-12T07:01:37;6.53;;;4.97;;
35909;SDS011;22004;49.120;-0.200;2022-11-12T07:04:03;6.43;;;4.88;;
35909;SDS011;22004;49.120;-0.200;2022-11-12T07:06:28;8.98;;;5.40;;
35909;SDS011;22004;49.120;-0.200;2022-11-12T07:08:54;6.85;;;4.90;;
35909;SDS011;22004;49.120;-0.200;2022-11-12T07:11:19;11.23;;;4.90;;
35909;SDS011;22004;49.120;-0.200;2022-11-12T07:13:45;7.07;;;5.10;;
35909;SDS011;22004;49.120;-0.200;2022-11-12T07:16:11;6.88;;;5.00;;
35909;SDS011;22004;49.120;-0.200;2022-11-12T07:18:38;9.30;;;5.00;;
35909;SDS011;22004;49.120;-0.200;2022-11-12T07:23:31;7.50;;;4.95;;
35909;SDS011;22004;49.120;-0.200;2022-11-12T07:28:28;7.80;;;4.55;;
35909;SDS011;22004;49.120;-0.200;2022-11-12T07:30:57;5.38;;;4.80;;
35909;SDS011;22004;49.120;-0.200;2022-11-12T07:33:27;7.10;;;5.07;;
35909;SDS011;22004;49.120;-0.200;2022-11-12T07:35:59;6.03;;;4.95;;
35909;SDS011;22004;49.120;-0.200;2022-11-12T07:38:28;6.20;;;4.80;;
35909;SDS011;22004;49.120;-0.200;2022-11-12T07:41:01;8.40;;;4.60;;
35909;SDS011;22004;49.120;-0.200;2022-11-12T07:43:29;7.63;;;5.32;;
35909;SDS011;22004;49.120;-0.200;2022-11-12T07:45:59;7.53;;;5.07;;
35909;SDS011;22004;49.120;-0.200;2022-11-12T07:48:26;6.43;;;4.53;;
35909;SDS011;22004;49.120;-0.200;2022-11-12T07:50:58;5.72;;;4.50;;
35909;SDS011;22004;49.120;-0.200;2022-11-12T07:53:27;6.55;;;4.57;;
35909;SDS011;22004;49.120;-0.200;2022-11-12T07:55:53;6.10;;;4.80;;
35909;SDS011;22004;49.120;-0.200;2022-11-12T07:58:21;8.77;;;4.60;;
35909;SDS011;22004;49.120;-0.200;2022-11-12T08:00:46;7.00;;;4.53;;
35909;SDS011;22004;49.120;-0.200;2022-11-12T08:03:12;9.20;;;5.40;;
35909;SDS011;22004;49.120;-0.200;2022-11-12T08:05:37;8.98;;;5.43;;
35909;SDS011;22004;49.120;-0.200;2022-11-12T08:08:02;6.95;;;5.18;;
35909;SDS011;22004;49.120;-0.200;2022-11-12T08:10:28;8.18;;;4.82;;
35909;SDS011;22004;49.120;-0.200;2022-11-12T08:12:54;6.03;;;4.55;;
35909;SDS011;22004;49.120;-0.200;2022-11-12T08:15:20;6.38;;;4.45;;
35909;SDS011;22004;49.120;-0.200;2022-11-12T08:17:45;6.45;;;4.95;;
35909;SDS011;22004;49.120;-0.200;2022-11-12T08:20:11;6.40;;;5.03;;
35909;SDS011;22004;49.120;-0.200;2022-11-12T08:22:37;6.05;;;5.10;;
35909;SDS011;22004;49.120;-0.200;2022-11-12T08:25:02;6.93;;;5.13;;
35909;SDS011;22004;49.120;-0.200;2022-11-12T08:27:28;5.93;;;4.40;;
35909;SDS011;22004;49.120;-0.200;2022-11-12T08:29:53;7.50;;;5.32;;
35909;SDS011;22004;49.120;-0.200;2022-11-12T08:32:18;6.25;;;4.53;;
35909;SDS011;22004;49.120;-0.200;2022-11-12T08:34:43;6.03;;;4.72;;
35909;SDS011;22004;49.120;-0.200;2022-11-12T08:37:09;6.57;;;4.63;;
35909;SDS011;22004;49.120;-0.200;2022-11-12T08:39:34;6.90;;;5.20;;
35909;SDS011;22004;49.120;-0.200;2022-11-12T08:41:59;8.07;;;5.05;;
35909;SDS011;22004;49.120;-0.200;2022-11-12T08:44:25;8.93;;;5.20;;
35909;SDS011;22004;49.120;-0.200;2022-11-12T08:46:50;6.20;;;5.20;;
35909;SDS011;22004;49.120;-0.200;2022-11-12T08:49:15;6.03;;;4.90;;
35909;SDS011;22004;49.120;-0.200;2022-11-12T08:51:41;7.03;;;4.93;;
35909;SDS011;22004;49.120;-0.200;2022-11-12T08:54:06;7.70;;;4.63;;
35909;SDS011;22004;49.120;-0.200;2022-11-12T08:56:31;8.13;;;4.82;;
35909;SDS011;22004;49.120;-0.200;2022-11-12T08:58:58;6.38;;;4.80;;
35909;SDS011;22004;49.120;-0.200;2022-11-12T09:01:23;8.93;;;5.20;;
35909;SDS011;22004;49.120;-0.200;2022-11-12T09:03:49;6.20;;;4.88;;
35909;SDS011;22004;49.120;-0.200;2022-11-12T09:06:14;7.80;;;5.40;;
35909;SDS011;22004;49.120;-0.200;2022-11-12T09:08:40;12.02;;;7.18;;
35909;SDS011;22004;49.120;-0.200;2022-11-12T09:11:05;10.40;;;7.13;;
35909;SDS011;22004;49.120;-0.200;2022-11-12T09:13:31;15.38;;;8.57;;
35909;SDS011;22004;49.120;-0.200;2022-11-12T09:16:00;11.60;;;6.75;;
35909;SDS011;22004;49.120;-0.200;2022-11-12T09:18:27;13.10;;;8.07;;
35909;SDS011;22004;49.120;-0.200;2022-11-12T09:20:53;17.45;;;8.52;;
35909;SDS011;22004;49.120;-0.200;2022-11-12T09:23:22;13.52;;;8.32;;
35909;SDS011;22004;49.120;-0.200;2022-11-12T09:25:48;8.35;;;6.70;;
35909;SDS011;22004;49.120;-0.200;2022-11-12T09:28:14;12.13;;;8.65;;
35909;SDS011;22004;49.120;-0.200;2022-11-12T09:30:42;11.55;;;8.48;;
35909;SDS011;22004;49.120;-0.200;2022-11-12T09:33:10;14.13;;;8.73;;
35909;SDS011;22004;49.120;-0.200;2022-11-12T09:35:39;12.82;;;8.45;;
35909;SDS011;22004;49.120;-0.200;2022-11-12T09:38:05;12.95;;;9.38;;
35909;SDS011;22004;49.120;-0.200;2022-11-12T09:40:36;13.70;;;9.07;;
35909;SDS011;22004;49.120;-0.200;2022-11-12T09:43:36;13.27;;;8.10;;
35909;SDS011;22004;49.120;-0.200;2022-11-12T09:46:05;15.30;;;8.35;;
35909;SDS011;22004;49.120;-0.200;2022-11-12T09:48:42;13.00;;;8.23;;
35909;SDS011;22004;49.120;-0.200;2022-11-12T09:51:15;19.35;;;10.50;;
35909;SDS011;22004;49.120;-0.200;2022-11-12T09:53:55;12.20;;;7.57;;
35909;SDS011;22004;49.120;-0.200;2022-11-12T09:56:23;13.90;;;8.38;;
35909;SDS011;22004;49.120;-0.200;2022-11-12T09:58:49;15.35;;;8.77;;
35909;SDS011;22004;49.120;-0.200;2022-11-12T10:01:17;11.10;;;7.50;;
35909;SDS011;22004;49.120;-0.200;2022-11-12T10:03:56;11.85;;;8.05;;
35909;SDS011;22004;49.120;-0.200;2022-11-12T10:06:26;11.15;;;8.30;;
35909;SDS011;22004;49.120;-0.200;2022-11-12T10:09:08;13.77;;;8.02;;
35909;SDS011;22004;49.120;-0.200;2022-11-12T10:19:52;10.60;;;7.30;;
35909;SDS011;22004;49.120;-0.200;2022-11-12T10:25:30;14.23;;;7.93;;
35909;SDS011;22004;49.120;-0.200;2022-11-12T10:27:57;15.73;;;8.63;;
35909;SDS011;22004;49.120;-0.200;2022-11-12T10:30:25;16.38;;;8.98;;
35909;SDS011;22004;49.120;-0.200;2022-11-12T10:32:51;18.27;;;9.02;;
35909;SDS011;22004;49.120;-0.200;2022-11-12T10:35:20;12.50;;;8.20;;
35909;SDS011;22004;49.120;-0.200;2022-11-12T10:37:55;15.40;;;8.93;;
35909;SDS011;22004;49.120;-0.200;2022-11-12T10:40:43;15.35;;;8.27;;
35909;SDS011;22004;49.120;-0.200;2022-11-12T10:45:39;15.52;;;8.63;;
35909;SDS011;22004;49.120;-0.200;2022-11-12T10:48:18;16.45;;;8.82;;
35909;SDS011;22004;49.120;-0.200;2022-11-12T10:50:46;17.10;;;10.95;;
35909;SDS011;22004;49.120;-0.200;2022-11-12T10:53:12;16.33;;;9.80;;
35909;SDS011;22004;49.120;-0.200;2022-11-12T10:55:53;21.50;;;11.40;;
35909;SDS011;22004;49.120;-0.200;2022-11-12T10:58:20;21.60;;;11.73;;
35909;SDS011;22004;49.120;-0.200;2022-11-12T11:01:19;21.63;;;13.10;;
35909;SDS011;22004;49.120;-0.200;2022-11-12T11:03:44;30.35;;;16.05;;
35909;SDS011;22004;49.120;-0.200;2022-11-12T11:06:21;23.55;;;14.68;;
35909;SDS011;22004;49.120;-0.200;2022-11-12T11:08:50;20.52;;;12.80;;
35909;SDS011;22004;49.120;-0.200;2022-11-12T11:11:36;21.33;;;13.13;;
35909;SDS011;22004;49.120;-0.200;2022-11-12T11:16:52;25.60;;;13.98;;
35909;SDS011;22004;49.120;-0.200;2022-11-12T11:19:20;21.40;;;14.75;;
35909;SDS011;22004;49.120;-0.200;2022-11-12T11:21:52;24.77;;;15.85;;
35909;SDS011;22004;49.120;-0.200;2022-11-12T11:24:38;15.75;;;11.18;;
35909;SDS011;22004;49.120;-0.200;2022-11-12T11:40:14;27.75;;;15.85;;
35909;SDS011;22004;49.120;-0.200;2022-11-12T11:48:24;19.08;;;7.25;;
35909;SDS011;22004;49.120;-0.200;2022-11-12T11:56:37;16.08;;;6.05;;
35909;SDS011;22004;49.120;-0.200;2022-11-12T12:04:41;17.90;;;6.20;;
35909;SDS011;22004;49.120;-0.200;2022-11-12T12:12:54;13.85;;;6.43;;
35909;SDS011;22004;49.120;-0.200;2022-11-12T12:15:34;12.30;;;6.15;;
35909;SDS011;22004;49.120;-0.200;2022-11-12T12:23:22;12.25;;;6.65;;
35909;SDS011;22004;49.120;-0.200;2022-11-12T12:25:57;18.13;;;6.35;;
35909;SDS011;22004;49.120;-0.200;2022-11-12T12:31:06;12.88;;;6.43;;
35909;SDS011;22004;49.120;-0.200;2022-11-12T12:36:16;15.98;;;6.35;;
35909;SDS011;22004;49.120;-0.200;2022-11-12T12:38:51;13.32;;;6.28;;
35909;SDS011;22004;49.120;-0.200;2022-11-12T12:41:29;15.07;;;6.47;;
35909;SDS011;22004;49.120;-0.200;2022-11-12T12:44:09;10.38;;;5.97;;
35909;SDS011;22004;49.120;-0.200;2022-11-12T12:46:40;14.00;;;6.45;;
35909;SDS011;22004;49.120;-0.200;2022-11-12T12:49:14;12.48;;;6.22;;
35909;SDS011;22004;49.120;-0.200;2022-11-12T12:51:43;13.82;;;6.28;;
35909;SDS011;22004;49.120;-0.200;2022-11-12T13:00:23;13.63;;;5.78;;
35909;SDS011;22004;49.120;-0.200;2022-11-12T13:02:56;13.55;;;6.20;;
35909;SDS011;22004;49.120;-0.200;2022-11-12T13:05:34;10.20;;;5.68;;
35909;SDS011;22004;49.120;-0.200;2022-11-12T13:08:17;15.02;;;5.85;;
35909;SDS011;22004;49.120;-0.200;2022-11-12T13:10:48;15.98;;;5.97;;
35909;SDS011;22004;49.120;-0.200;2022-11-12T13:15:52;18.52;;;6.07;;
35909;SDS011;22004;49.120;-0.200;2022-11-12T13:21:07;11.35;;;5.22;;
35909;SDS011;22004;49.120;-0.200;2022-11-12T13:23:55;10.80;;;5.35;;
35909;SDS011;22004;49.120;-0.200;2022-11-12T13:31:48;15.32;;;5.30;;
35909;SDS011;22004;49.120;-0.200;2022-11-12T13:34:34;13.23;;;5.38;;
35909;SDS011;22004;49.120;-0.200;2022-11-12T13:37:03;11.68;;;4.78;;
35909;SDS011;22004;49.120;-0.200;2022-11-12T13:39:33;15.32;;;5.80;;
35909;SDS011;22004;49.120;-0.200;2022-11-12T13:42:01;11.43;;;5.10;;
35909;SDS011;22004;49.120;-0.200;2022-11-12T13:44:55;12.93;;;5.68;;
35909;SDS011;22004;49.120;-0.200;2022-11-12T13:47:24;16.27;;;5.30;;
35909;SDS011;22004;49.120;-0.200;2022-11-12T13:49:52;13.10;;;4.47;;
35909;SDS011;22004;49.120;-0.200;2022-11-12T13:52:20;14.80;;;5.45;;
35909;SDS011;22004;49.120;-0.200;2022-11-12T13:54:46;14.45;;;5.50;;
35909;SDS011;22004;49.120;-0.200;2022-11-12T13:57:12;11.55;;;5.30;;
35909;SDS011;22004;49.120;-0.200;2022-11-12T13:59:45;15.98;;;5.50;;
35909;SDS011;22004;49.120;-0.200;2022-11-12T14:02:18;12.48;;;5.15;;
35909;SDS011;22004;49.120;-0.200;2022-11-12T14:04:47;9.50;;;5.00;;
35909;SDS011;22004;49.120;-0.200;2022-11-12T14:20:28;11.43;;;5.07;;
35909;SDS011;22004;49.120;-0.200;2022-11-12T14:23:11;16.67;;;5.20;;
35909;SDS011;22004;49.120;-0.200;2022-11-12T14:25:49;10.07;;;4.63;;
35909;SDS011;22004;49.120;-0.200;2022-11-12T14:31:22;14.50;;;5.43;;
35909;SDS011;22004;49.120;-0.200;2022-11-12T14:33:48;14.43;;;5.40;;
35909;SDS011;22004;49.120;-0.200;2022-11-12T14:36:14;14.25;;;5.70;;
35909;SDS011;22004;49.120;-0.200;2022-11-12T14:38:44;8.23;;;5.30;;
35909;SDS011;22004;49.120;-0.200;2022-11-12T14:41:22;15.93;;;5.22;;
35909;SDS011;22004;49.120;-0.200;2022-11-12T14:43:50;13.35;;;5.43;;
35909;SDS011;22004;49.120;-0.200;2022-11-12T14:49:05;13.88;;;5.75;;
35909;SDS011;22004;49.120;-0.200;2022-11-12T14:51:43;15.52;;;5.53;;
35909;SDS011;22004;49.120;-0.200;2022-11-12T14:54:25;12.82;;;4.78;;
35909;SDS011;22004;49.120;-0.200;2022-11-12T14:56:54;9.20;;;4.72;;
35909;SDS011;22004;49.120;-0.200;2022-11-12T14:59:22;14.82;;;5.32;;
35909;SDS011;22004;49.120;-0.200;2022-11-12T15:04:34;12.75;;;4.72;;
35909;SDS011;22004;49.120;-0.200;2022-11-12T15:07:01;11.80;;;4.78;;
35909;SDS011;22004;49.120;-0.200;2022-11-12T15:09:31;9.70;;;4.70;;
35909;SDS011;22004;49.120;-0.200;2022-11-12T15:11:58;11.57;;;5.18;;
35909;SDS011;22004;49.120;-0.200;2022-11-12T15:14:24;12.02;;;5.05;;
35909;SDS011;22004;49.120;-0.200;2022-11-12T15:16:50;10.63;;;5.05;;
35909;SDS011;22004;49.120;-0.200;2022-11-12T15:19:21;9.95;;;4.65;;
35909;SDS011;22004;49.120;-0.200;2022-11-12T15:21:52;12.90;;;4.55;;
35909;SDS011;22004;49.120;-0.200;2022-11-12T15:24:32;11.38;;;4.90;;
35909;SDS011;22004;49.120;-0.200;2022-11-12T15:27:25;9.80;;;5.18;;
35909;SDS011;22004;49.120;-0.200;2022-11-12T15:30:07;17.33;;;4.82;;
35909;SDS011;22004;49.120;-0.200;2022-11-12T15:35:37;10.82;;;5.05;;
35909;SDS011;22004;49.120;-0.200;2022-11-12T15:38:26;12.30;;;4.88;;
35909;SDS011;22004;49.120;-0.200;2022-11-12T15:40:56;13.98;;;4.90;;
35909;SDS011;22004;49.120;-0.200;2022-11-12T15:43:23;13.15;;;5.82;;
35909;SDS011;22004;49.120;-0.200;2022-11-12T15:45:51;10.77;;;4.68;;
35909;SDS011;22004;49.120;-0.200;2022-11-12T15:48:18;8.82;;;5.35;;
35909;SDS011;22004;49.120;-0.200;2022-11-12T15:50:44;8.50;;;4.82;;
35909;SDS011;22004;49.120;-0.200;2022-11-12T15:53:10;9.35;;;5.00;;
35909;SDS011;22004;49.120;-0.200;2022-11-12T15:55:37;13.75;;;5.57;;
35909;SDS011;22004;49.120;-0.200;2022-11-12T15:58:04;12.48;;;5.15;;
35909;SDS011;22004;49.120;-0.200;2022-11-12T16:00:32;11.18;;;5.47;;
35909;SDS011;22004;49.120;-0.200;2022-11-12T16:03:15;10.88;;;5.32;;
35909;SDS011;22004;49.120;-0.200;2022-11-12T16:05:43;12.98;;;5.50;;
35909;SDS011;22004;49.120;-0.200;2022-11-12T16:08:09;11.35;;;4.75;;
35909;SDS011;22004;49.120;-0.200;2022-11-12T16:10:35;15.10;;;5.25;;
35909;SDS011;22004;49.120;-0.200;2022-11-12T16:13:01;11.18;;;5.50;;
35909;SDS011;22004;49.120;-0.200;2022-11-12T16:15:29;16.55;;;5.88;;
35909;SDS011;22004;49.120;-0.200;2022-11-12T16:17:54;13.40;;;5.10;;
35909;SDS011;22004;49.120;-0.200;2022-11-12T16:22:47;9.82;;;5.07;;
35909;SDS011;22004;49.120;-0.200;2022-11-12T16:25:14;14.02;;;5.28;;
35909;SDS011;22004;49.120;-0.200;2022-11-12T16:27:40;11.40;;;4.88;;
35909;SDS011;22004;49.120;-0.200;2022-11-12T16:30:12;7.40;;;4.97;;
35909;SDS011;22004;49.120;-0.200;2022-11-12T16:32:41;15.23;;;5.32;;
35909;SDS011;22004;49.120;-0.200;2022-11-12T16:35:07;11.50;;;6.97;;